createdAt,value
2022-11-10T00:02:20.897Z,4.03
2022-11-10T00:05:06.495Z,3.78
2022-11-10T00:07:51.674Z,4.25
2022-11-10T00:10:57.098Z,4.43
2022-11-10T00:14:00.924Z,4.63
2022-11-10T00:17:01.548Z,4.35
2022-11-10T00:19:46.781Z,4.45
2022-11-10T00:22:34.176Z,4.85
2022-11-10T00:25:19.650Z,4.97
2022-11-10T00:28:05.137Z,4.05
2022-11-10T00:30:50.318Z,4.50
2022-11-10T00:33:37.903Z,3.92
2022-11-10T00:36:23.855Z,3.70
2022-11-10T00:39:09.914Z,4.30
2022-11-10T00:41:55.568Z,5.18
2022-11-10T00:44:41.321Z,4.50
2022-11-10T00:47:26.763Z,4.85
2022-11-10T00:50:12.361Z,5.07
2022-11-10T00:52:57.526Z,5.38
2022-11-10T00:55:42.733Z,6.00
2022-11-10T00:58:27.998Z,4.80
2022-11-10T01:01:14.416Z,5.03
2022-11-10T01:03:59.882Z,4.43
2022-11-10T01:06:47.838Z,4.63
2022-11-10T01:09:32.973Z,5.15
2022-11-10T01:12:18.574Z,5.95
2022-11-10T01:15:04.712Z,5.85
2022-11-10T01:17:51.166Z,6.28
2022-11-10T01:20:36.717Z,6.30
2022-11-10T01:23:22.160Z,6.30
2022-11-10T01:26:08.711Z,6.22
2022-11-10T01:28:54.005Z,5.97
2022-11-10T01:31:39.633Z,5.60
2022-11-10T01:34:24.919Z,5.55
2022-11-10T01:37:11.958Z,5.47
2022-11-10T01:39:57.333Z,6.18
2022-11-10T01:42:51.664Z,6.45
2022-11-10T01:45:46.079Z,6.30
2022-11-10T01:48:45.613Z,5.45
2022-11-10T01:51:58.851Z,5.53
2022-11-10T01:54:47.656Z,5.30
2022-11-10T01:57:33.407Z,5.90
2022-11-10T02:00:19.783Z,5.82
2022-11-10T02:03:25.188Z,5.90
2022-11-10T02:06:11.464Z,5.45
2022-11-10T02:08:58.507Z,6.10
2022-11-10T02:11:45.062Z,5.97
2022-11-10T02:14:30.679Z,6.28
2022-11-10T02:17:16.549Z,5.53
2022-11-10T02:20:04.858Z,5.57
2022-11-10T02:22:50.143Z,6.32
2022-11-10T02:25:36.082Z,5.68
2022-11-10T02:28:21.758Z,6.55
2022-11-10T02:31:09.256Z,6.47
2022-11-10T02:33:54.612Z,7.30
2022-11-10T02:36:40.134Z,8.43
2022-11-10T02:39:26.646Z,9.10
2022-11-10T02:42:12.216Z,9.07
2022-11-10T02:44:57.844Z,7.45
2022-11-10T02:47:43.193Z,8.07
2022-11-10T02:50:28.338Z,8.05
2022-11-10T02:53:13.746Z,8.38
2022-11-10T02:55:59.618Z,8.70
2022-11-10T02:58:44.805Z,8.85
2022-11-10T03:01:30.459Z,8.45
2022-11-10T03:04:15.798Z,7.97
2022-11-10T03:07:01.435Z,7.60
2022-11-10T03:09:47.035Z,8.95
2022-11-10T03:12:32.444Z,9.82
2022-11-10T03:15:17.923Z,9.77
2022-11-10T03:18:04.821Z,10.07
2022-11-10T03:20:50.420Z,10.38
2022-11-10T03:23:36.520Z,9.95
2022-11-10T03:26:22.348Z,9.65
2022-11-10T03:29:07.844Z,10.00
2022-11-10T03:31:53.606Z,10.20
2022-11-10T03:34:39.179Z,9.07
2022-11-10T03:37:24.499Z,10.70
2022-11-10T03:40:10.500Z,10.90
2022-11-10T03:42:55.751Z,11.50
2022-11-10T03:45:44.679Z,13.55
2022-11-10T03:48:30.089Z,13.07
2022-11-10T03:51:15.314Z,11.93
2022-11-10T03:54:00.442Z,12.95
2022-11-10T03:56:45.698Z,12.98
2022-11-10T03:59:31.332Z,11.27
2022-11-10T04:02:16.846Z,14.05
2022-11-10T04:05:21.170Z,13.00
2022-11-10T04:08:31.901Z,12.07
2022-11-10T04:11:37.350Z,12.30
2022-11-10T04:14:41.478Z,12.88
2022-11-10T04:17:26.970Z,13.45
2022-11-10T04:20:15.314Z,12.30
2022-11-10T04:23:19.357Z,13.35
2022-11-10T04:26:28.560Z,12.38
2022-11-10T04:29:16.582Z,12.88
2022-11-10T04:32:02.067Z,12.98
2022-11-10T04:34:47.169Z,13.77
2022-11-10T04:37:32.733Z,13.73
2022-11-10T04:40:18.153Z,13.65
2022-11-10T04:43:03.410Z,13.90
2022-11-10T04:45:49.218Z,14.48
2022-11-10T04:48:35.277Z,13.40
2022-11-10T04:51:23.948Z,15.05
2022-11-10T04:54:10.746Z,13.20
2022-11-10T04:56:55.849Z,14.20
2022-11-10T04:59:41.366Z,14.55
2022-11-10T05:02:26.601Z,14.80
2022-11-10T05:05:12.691Z,14.82
2022-11-10T05:07:58.380Z,13.25
2022-11-10T05:10:43.883Z,14.35
2022-11-10T05:13:29.127Z,13.93
2022-11-10T05:16:14.817Z,14.13
2022-11-10T05:19:00.470Z,12.52
2022-11-10T05:21:45.743Z,13.25
2022-11-10T05:24:30.839Z,12.75
2022-11-10T05:27:16.308Z,12.48
2022-11-10T05:30:01.611Z,12.32
2022-11-10T05:32:47.534Z,10.70
2022-11-10T05:35:33.903Z,11.98
2022-11-10T05:38:19.357Z,11.30
2022-11-10T05:41:05.026Z,10.85
2022-11-10T05:43:50.355Z,9.95
2022-11-10T05:46:35.865Z,9.43
2022-11-10T05:49:21.639Z,9.25
2022-11-10T05:52:07.225Z,10.68
2022-11-10T05:54:55.287Z,9.75
2022-11-10T05:57:48.027Z,10.23
2022-11-10T06:00:33.884Z,10.13
2022-11-10T06:03:20.410Z,8.73
2022-11-10T06:06:06.221Z,10.38
2022-11-10T06:08:52.082Z,9.50
2022-11-10T06:11:37.781Z,9.82
2022-11-10T06:14:23.643Z,9.90
2022-11-10T06:17:08.901Z,9.15
2022-11-10T06:19:54.423Z,8.93
2022-11-10T06:22:40.246Z,8.70
2022-11-10T06:25:26.012Z,9.80
2022-11-10T06:28:11.576Z,9.85
2022-11-10T06:30:58.575Z,9.55
2022-11-10T06:33:43.742Z,8.43
2022-11-10T06:36:29.222Z,9.93
2022-11-10T06:39:14.662Z,8.15
2022-11-10T06:42:00.253Z,7.60
2022-11-10T06:44:45.353Z,8.35
2022-11-10T06:47:30.789Z,8.10
2022-11-10T06:50:17.094Z,7.65
2022-11-10T06:53:02.929Z,8.30
2022-11-10T06:55:48.473Z,8.32
2022-11-10T06:58:33.700Z,8.25
2022-11-10T07:01:22.635Z,8.93
2022-11-10T07:04:23.581Z,9.75
2022-11-10T07:07:09.650Z,9.95
2022-11-10T07:09:55.332Z,9.93
2022-11-10T07:12:40.800Z,10.13
2022-11-10T07:15:26.460Z,10.57
2022-11-10T07:18:12.088Z,11.27
2022-11-10T07:20:57.230Z,10.70
2022-11-10T07:23:42.679Z,11.20
2022-11-10T07:26:28.354Z,10.85
2022-11-10T07:29:13.846Z,10.80
2022-11-10T07:31:59.450Z,10.90
2022-11-10T07:34:44.844Z,11.05
2022-11-10T07:37:29.962Z,11.10
2022-11-10T07:40:15.515Z,10.85
2022-11-10T07:43:00.733Z,11.52
2022-11-10T07:45:45.882Z,9.35
2022-11-10T07:48:32.673Z,8.55
2022-11-10T07:51:18.211Z,10.32
2022-11-10T07:54:03.970Z,8.93
2022-11-10T07:56:49.422Z,9.02
2022-11-10T07:59:34.933Z,8.52
2022-11-10T08:02:20.087Z,8.88
2022-11-10T08:05:05.885Z,7.15
2022-11-10T08:07:52.879Z,7.45
2022-11-10T08:10:38.869Z,8.32
2022-11-10T08:13:24.995Z,7.70
2022-11-10T08:16:10.460Z,7.43
2022-11-10T08:18:55.614Z,6.80
2022-11-10T08:21:41.135Z,6.78
2022-11-10T08:24:26.342Z,7.63
2022-11-10T08:27:11.868Z,7.50
2022-11-10T08:29:57.037Z,7.28
2022-11-10T08:32:42.300Z,6.65
2022-11-10T08:35:30.192Z,7.38
2022-11-10T08:38:21.071Z,6.57
2022-11-10T08:41:06.600Z,5.95
2022-11-10T08:43:51.995Z,8.35
2022-11-10T08:46:37.302Z,5.85
2022-11-10T08:49:22.600Z,6.40
2022-11-10T08:52:08.825Z,6.35
2022-11-10T08:54:54.334Z,6.70
2022-11-10T08:57:39.725Z,7.15
2022-11-10T09:00:24.809Z,6.35
2022-11-10T09:03:21.754Z,6.65
2022-11-10T09:06:07.498Z,7.35
2022-11-10T09:08:52.982Z,8.63
2022-11-10T09:11:39.698Z,6.18
2022-11-10T09:14:24.868Z,7.20
2022-11-10T09:17:10.275Z,7.20
2022-11-10T09:19:55.493Z,6.45
2022-11-10T09:22:40.785Z,6.35
2022-11-10T09:25:25.899Z,5.82
2022-11-10T09:28:13.779Z,6.30
2022-11-10T09:31:00.395Z,6.32
2022-11-10T09:33:45.845Z,6.53
2022-11-10T09:36:31.015Z,7.40
2022-11-10T09:39:16.386Z,6.43
2022-11-10T09:42:01.820Z,5.20
2022-11-10T09:44:54.878Z,6.05
2022-11-10T09:50:52.703Z,5.18
2022-11-10T09:53:43.627Z,5.18
2022-11-10T09:56:35.119Z,4.53
2022-11-10T09:59:26.846Z,4.43
2022-11-10T10:02:37.914Z,6.00
2022-11-10T10:05:41.475Z,4.40
2022-11-10T10:08:32.710Z,4.65
2022-11-10T10:11:41.173Z,5.05
2022-11-10T10:14:38.374Z,4.93
2022-11-10T10:18:00.421Z,5.18
2022-11-10T10:21:09.918Z,4.55
2022-11-10T10:24:21.219Z,4.82
2022-11-10T10:27:06.748Z,4.72
2022-11-10T10:29:53.018Z,4.75
2022-11-10T10:32:38.188Z,4.85
2022-11-10T10:35:23.525Z,4.18
2022-11-10T10:38:32.245Z,4.25
2022-11-10T10:41:26.046Z,3.88
2022-11-10T10:44:20.122Z,4.32
2022-11-10T10:47:05.613Z,4.03
2022-11-10T10:49:51.087Z,4.22
2022-11-10T10:52:36.666Z,5.30
2022-11-10T10:55:28.006Z,4.05
2022-11-10T10:58:23.825Z,4.15
2022-11-10T11:01:15.582Z,4.93
2022-11-10T11:04:05.111Z,3.70
2022-11-10T11:06:58.381Z,4.28
2022-11-10T11:09:45.100Z,4.93
2022-11-10T11:12:33.829Z,4.63
2022-11-10T11:15:28.299Z,5.55
2022-11-10T11:18:16.458Z,5.47
2022-11-10T11:21:20.590Z,4.40
2022-11-10T11:24:54.671Z,4.53
2022-11-10T11:27:57.023Z,4.60
2022-11-10T11:31:14.166Z,4.38
2022-11-10T11:34:27.486Z,5.25
2022-11-10T11:40:43.281Z,4.10
2022-11-10T11:43:31.779Z,4.18
2022-11-10T11:46:22.095Z,3.60
2022-11-10T11:49:26.045Z,4.95
2022-11-10T11:52:34.600Z,4.55
2022-11-10T11:55:25.613Z,4.85
2022-11-10T11:58:38.431Z,5.15
2022-11-10T12:01:36.370Z,4.80
2022-11-10T12:04:51.866Z,4.10
2022-11-10T12:07:57.742Z,4.57
2022-11-10T12:11:04.941Z,4.70
2022-11-10T12:14:25.558Z,4.55
2022-11-10T12:17:26.828Z,3.72
2022-11-10T12:20:33.867Z,4.20
2022-11-10T12:23:34.439Z,4.28
2022-11-10T12:26:25.435Z,4.30
2022-11-10T12:29:31.841Z,4.38
2022-11-10T12:32:37.293Z,3.88
2022-11-10T12:35:26.859Z,3.90
2022-11-10T12:38:16.378Z,3.80
2022-11-10T12:41:07.605Z,3.55
2022-11-10T12:44:16.598Z,3.50
2022-11-10T12:47:07.101Z,3.78
2022-11-10T12:50:19.293Z,3.65
2022-11-10T12:53:24.124Z,4.55
2022-11-10T12:56:20.439Z,4.85
2022-11-10T12:59:21.049Z,3.95
2022-11-10T13:02:24.354Z,3.95
2022-11-10T13:05:30.384Z,3.85
2022-11-10T13:08:43.689Z,3.28
2022-11-10T13:11:36.326Z,3.42
2022-11-10T13:14:31.339Z,4.25
2022-11-10T13:17:28.951Z,4.18
2022-11-10T13:20:39.309Z,4.43
2022-11-10T13:23:48.835Z,3.63
2022-11-10T13:26:40.472Z,4.03
2022-11-10T13:29:34.682Z,4.60
2022-11-10T13:32:31.450Z,3.78
2022-11-10T13:35:28.705Z,3.80
2022-11-10T13:38:41.904Z,3.60
2022-11-10T13:41:27.396Z,4.15
2022-11-10T13:44:40.163Z,3.95
2022-11-10T13:47:56.082Z,3.50
2022-11-10T13:50:41.347Z,3.63
2022-11-10T13:53:32.594Z,4.22
2022-11-10T13:56:57.885Z,3.25
2022-11-10T13:59:52.530Z,3.25
2022-11-10T14:02:48.371Z,3.70
2022-11-10T14:05:41.923Z,4.35
2022-11-10T14:08:30.960Z,2.95
2022-11-10T14:11:25.295Z,3.70
2022-11-10T14:14:14.571Z,3.20
2022-11-10T14:17:00.552Z,4.10
2022-11-10T14:19:47.261Z,4.25
2022-11-10T14:22:41.701Z,3.85
2022-11-10T14:25:36.065Z,3.78
2022-11-10T14:28:37.420Z,4.93
2022-11-10T14:31:25.693Z,3.75
2022-11-10T14:34:16.949Z,4.43
2022-11-10T14:37:04.186Z,3.83
2022-11-10T14:39:55.759Z,3.47
2022-11-10T14:42:41.191Z,3.05
2022-11-10T14:45:27.981Z,3.42
2022-11-10T14:48:20.508Z,3.80
2022-11-10T14:53:55.383Z,3.70
2022-11-10T14:56:42.514Z,3.72
2022-11-10T14:59:27.974Z,3.20
2022-11-10T15:02:19.354Z,2.83
2022-11-10T15:05:05.292Z,3.05
2022-11-10T15:07:56.202Z,3.72
2022-11-10T15:10:41.491Z,4.40
2022-11-10T15:13:33.285Z,3.05
2022-11-10T15:16:21.942Z,3.07
2022-11-10T15:19:27.266Z,4.55
2022-11-10T15:22:26.073Z,3.25
2022-11-10T15:25:17.029Z,2.80
2022-11-10T15:28:06.634Z,3.00
2022-11-10T15:30:55.136Z,3.53
2022-11-10T15:33:46.907Z,2.72
2022-11-10T15:36:39.452Z,3.08
2022-11-10T15:39:27.015Z,3.05
2022-11-10T15:42:23.719Z,2.92
2022-11-10T15:45:09.477Z,3.80
2022-11-10T15:47:56.030Z,2.95
2022-11-10T15:50:43.662Z,2.88
2022-11-10T15:53:37.293Z,3.25
2022-11-10T15:56:24.720Z,2.78
2022-11-10T15:59:10.864Z,3.83
2022-11-10T16:01:57.152Z,3.08
2022-11-10T16:04:42.615Z,2.95
2022-11-10T16:07:27.803Z,3.10
2022-11-10T16:10:13.223Z,2.80
2022-11-10T16:12:58.396Z,3.38
2022-11-10T16:15:45.462Z,3.90
2022-11-10T16:18:30.794Z,2.97
2022-11-10T16:21:20.833Z,2.35
2022-11-10T16:24:06.434Z,3.08
2022-11-10T16:26:52.071Z,2.83
2022-11-10T16:29:38.004Z,2.80
2022-11-10T16:32:23.447Z,2.95
2022-11-10T16:35:13.778Z,3.30
2022-11-10T16:37:58.858Z,2.72
2022-11-10T16:40:44.894Z,3.47
2022-11-10T16:43:31.716Z,3.15
2022-11-10T16:46:23.616Z,3.10
2022-11-10T16:49:23.298Z,2.97
2022-11-10T16:52:14.071Z,2.70
2022-11-10T16:54:59.658Z,2.83
2022-11-10T16:57:45.164Z,2.33
2022-11-10T17:00:30.590Z,2.85
2022-11-10T17:03:18.299Z,2.45
2022-11-10T17:06:05.268Z,2.70
2022-11-10T17:08:53.169Z,2.83
2022-11-10T17:11:38.538Z,2.42
2022-11-10T17:14:24.443Z,2.42
2022-11-10T17:17:19.459Z,3.35
2022-11-10T17:20:06.260Z,2.40
2022-11-10T17:22:52.865Z,2.65
2022-11-10T17:25:38.933Z,2.30
2022-11-10T17:28:24.223Z,2.72
2022-11-10T17:31:13.800Z,2.63
2022-11-10T17:33:59.048Z,2.42
2022-11-10T17:36:44.615Z,2.60
2022-11-10T17:39:30.627Z,2.15
2022-11-10T17:42:15.985Z,3.78
2022-11-10T17:45:01.869Z,2.20
2022-11-10T17:47:48.781Z,2.60
2022-11-10T17:50:36.709Z,2.75
2022-11-10T17:53:25.153Z,2.55
2022-11-10T17:56:10.848Z,2.38
2022-11-10T17:58:56.472Z,2.65
2022-11-10T18:01:42.369Z,2.92
2022-11-10T18:04:27.968Z,2.58
2022-11-10T18:07:13.710Z,2.42
2022-11-10T18:09:59.217Z,2.92
2022-11-10T18:12:45.210Z,2.50
2022-11-10T18:15:31.414Z,2.08
2022-11-10T18:18:18.114Z,2.45
2022-11-10T18:21:04.802Z,2.53
2022-11-10T18:23:50.424Z,2.92
2022-11-10T18:26:35.987Z,2.42
2022-11-10T18:29:21.686Z,3.45
2022-11-10T18:32:07.271Z,3.33
2022-11-10T18:34:52.664Z,2.25
2022-11-10T18:37:39.345Z,2.45
2022-11-10T18:40:25.442Z,2.38
2022-11-10T18:43:10.895Z,2.20
2022-11-10T18:45:56.283Z,2.50
2022-11-10T18:48:42.416Z,2.00
2022-11-10T18:51:27.838Z,2.85
2022-11-10T18:54:13.729Z,2.50
2022-11-10T18:56:59.239Z,2.15
2022-11-10T18:59:46.072Z,2.80
2022-11-10T19:02:31.592Z,1.70
2022-11-10T19:05:17.392Z,2.53
2022-11-10T19:08:03.502Z,2.40
2022-11-10T19:10:48.795Z,3.08
2022-11-10T19:13:34.464Z,2.20
2022-11-10T19:16:20.425Z,2.30
2022-11-10T19:19:06.025Z,2.90
2022-11-10T19:21:51.585Z,1.80
2022-11-10T19:24:53.740Z,2.53
2022-11-10T19:27:42.014Z,2.38
2022-11-10T19:30:27.289Z,2.33
2022-11-10T19:33:14.948Z,3.17
2022-11-10T19:36:05.957Z,2.08
2022-11-10T19:38:53.304Z,2.35
2022-11-10T19:41:38.827Z,2.20
2022-11-10T19:44:24.511Z,2.17
2022-11-10T19:47:10.382Z,2.03
2022-11-10T19:49:55.995Z,2.45
2022-11-10T19:52:41.313Z,2.58
2022-11-10T19:55:26.596Z,2.65
2022-11-10T19:58:11.810Z,2.45
2022-11-10T20:00:57.141Z,2.72
2022-11-10T20:03:43.192Z,1.90
2022-11-10T20:06:28.793Z,2.58
2022-11-10T20:09:14.446Z,2.42
2022-11-10T20:12:00.103Z,2.42
2022-11-10T20:14:45.385Z,3.83
2022-11-10T20:17:30.672Z,2.90
2022-11-10T20:20:16.747Z,3.17
2022-11-10T20:23:03.444Z,2.95
2022-11-10T20:25:48.888Z,2.88
2022-11-10T20:28:37.280Z,3.15
2022-11-10T20:31:25.914Z,3.22
2022-11-10T20:34:11.375Z,2.95
2022-11-10T20:36:56.905Z,3.33
2022-11-10T20:39:42.395Z,2.92
2022-11-10T20:42:27.940Z,4.00
2022-11-10T20:45:13.553Z,3.00
2022-11-10T20:47:59.182Z,3.45
2022-11-10T20:50:44.803Z,3.17
2022-11-10T20:53:30.055Z,2.80
2022-11-10T20:56:16.535Z,4.00
2022-11-10T20:59:02.419Z,3.03
2022-11-10T21:01:47.938Z,2.90
2022-11-10T21:04:33.361Z,3.80
2022-11-10T21:07:20.813Z,3.50
2022-11-10T21:10:06.576Z,2.90
2022-11-10T21:12:52.068Z,3.83
2022-11-10T21:15:39.274Z,3.47
2022-11-10T21:18:31.017Z,3.22
2022-11-10T21:21:28.052Z,3.28
2022-11-10T21:24:13.819Z,3.28
2022-11-10T21:26:59.820Z,3.75
2022-11-10T21:29:45.621Z,3.53
2022-11-10T21:32:31.294Z,3.47
2022-11-10T21:35:17.335Z,2.70
2022-11-10T21:38:04.713Z,3.75
2022-11-10T21:40:49.837Z,3.70
2022-11-10T21:43:35.568Z,4.40
2022-11-10T21:46:20.929Z,4.15
2022-11-10T21:49:07.904Z,3.90
2022-11-10T21:51:53.523Z,4.03
2022-11-10T21:54:38.938Z,3.58
2022-11-10T21:57:24.845Z,4.57
2022-11-10T22:00:11.937Z,3.50
2022-11-10T22:03:01.571Z,3.33
2022-11-10T22:05:46.680Z,4.22
2022-11-10T22:08:32.973Z,4.22
2022-11-10T22:11:38.894Z,4.22
2022-11-10T22:14:43.483Z,3.83
2022-11-10T22:17:47.554Z,4.60
2022-11-10T22:20:34.290Z,4.22
2022-11-10T22:23:39.714Z,4.75
2022-11-10T22:26:25.251Z,4.07
2022-11-10T22:29:10.681Z,4.22
2022-11-10T22:31:56.290Z,4.07
2022-11-10T22:34:41.889Z,4.35
2022-11-10T22:37:33.168Z,4.90
2022-11-10T22:40:36.885Z,4.40
2022-11-10T22:43:40.992Z,4.43
2022-11-10T22:46:26.524Z,4.78
2022-11-10T22:49:14.230Z,4.10
2022-11-10T22:52:01.043Z,4.78
2022-11-10T22:54:46.658Z,4.65
2022-11-10T22:57:32.137Z,5.07
2022-11-10T23:00:18.272Z,4.05
2022-11-10T23:03:03.984Z,4.28
2022-11-10T23:05:56.271Z,5.35
2022-11-10T23:08:42.832Z,4.53
2022-11-10T23:11:30.166Z,5.03
2022-11-10T23:14:15.467Z,5.68
2022-11-10T23:17:01.182Z,5.50
2022-11-10T23:19:48.110Z,4.93
2022-11-10T23:22:33.568Z,5.30
2022-11-10T23:25:18.969Z,5.38
2022-11-10T23:28:04.372Z,5.03
2022-11-10T23:30:49.952Z,6.53
2022-11-10T23:33:36.771Z,5.25
2022-11-10T23:36:24.119Z,5.90
2022-11-10T23:39:09.534Z,5.38
2022-11-10T23:41:54.856Z,5.95
2022-11-10T23:44:40.263Z,5.78
2022-11-10T23:47:25.572Z,5.88
2022-11-10T23:50:10.967Z,5.47
2022-11-10T23:52:56.540Z,5.47
2022-11-10T23:55:42.196Z,5.85
2022-11-10T23:58:28.338Z,5.95
